sensor_id;sensor_type;location;lat;lon;timestamp;P1;durP1;ratioP1;P2;durP2;ratioP2
27163;SDS011;14685;50.618;7.024;2022-08-21T00:00:24;10.75;;;4.13;;
27163;SDS011;14685;50.618;7.024;2022-08-21T00:02:55;8.85;;;4.57;;
27163;SDS011;14685;50.618;7.024;2022-08-21T00:05:25;10.18;;;4.60;;
27163;SDS011;14685;50.618;7.024;2022-08-21T00:07:53;7.03;;;4.20;;
27163;SDS011;14685;50.618;7.024;2022-08-21T00:10:20;7.13;;;4.00;;
27163;SDS011;14685;50.618;7.024;2022-08-21T00:12:48;9.68;;;3.55;;
27163;SDS011;14685;50.618;7.024;2022-08-21T00:15:18;6.78;;;4.05;;
27163;SDS011;14685;50.618;7.024;2022-08-21T00:17:47;7.65;;;4.20;;
27163;SDS011;14685;50.618;7.024;2022-08-21T00:20:15;9.70;;;4.47;;
27163;SDS011;14685;50.618;7.024;2022-08-21T00:22:43;11.30;;;4.70;;
27163;SDS011;14685;50.618;7.024;2022-08-21T00:25:11;7.68;;;4.20;;
27163;SDS011;14685;50.618;7.024;2022-08-21T00:27:38;7.05;;;3.58;;
27163;SDS011;14685;50.618;7.024;2022-08-21T00:30:09;8.95;;;3.90;;
27163;SDS011;14685;50.618;7.024;2022-08-21T00:32:47;11.45;;;4.25;;
27163;SDS011;14685;50.618;7.024;2022-08-21T00:35:16;6.53;;;4.00;;
27163;SDS011;14685;50.618;7.024;2022-08-21T00:37:44;6.72;;;3.97;;
27163;SDS011;14685;50.618;7.024;2022-08-21T00:40:12;8.10;;;4.30;;
27163;SDS011;14685;50.618;7.024;2022-08-21T00:42:43;6.75;;;3.50;;
27163;SDS011;14685;50.618;7.024;2022-08-21T00:45:19;8.43;;;4.00;;
27163;SDS011;14685;50.618;7.024;2022-08-21T00:47:48;11.32;;;4.80;;
27163;SDS011;14685;50.618;7.024;2022-08-21T00:50:16;8.98;;;4.90;;
27163;SDS011;14685;50.618;7.024;2022-08-21T00:52:47;9.98;;;4.22;;
27163;SDS011;14685;50.618;7.024;2022-08-21T00:55:15;10.98;;;4.55;;
27163;SDS011;14685;50.618;7.024;2022-08-21T00:57:44;7.25;;;4.88;;
27163;SDS011;14685;50.618;7.024;2022-08-21T01:00:17;7.45;;;4.25;;
27163;SDS011;14685;50.618;7.024;2022-08-21T01:02:47;9.35;;;4.05;;
27163;SDS011;14685;50.618;7.024;2022-08-21T01:05:14;10.38;;;4.97;;
27163;SDS011;14685;50.618;7.024;2022-08-21T01:07:42;9.65;;;4.43;;
27163;SDS011;14685;50.618;7.024;2022-08-21T01:10:10;9.27;;;5.03;;
27163;SDS011;14685;50.618;7.024;2022-08-21T01:12:50;8.02;;;4.32;;
27163;SDS011;14685;50.618;7.024;2022-08-21T01:15:19;5.30;;;4.05;;
27163;SDS011;14685;50.618;7.024;2022-08-21T01:17:49;8.23;;;4.38;;
27163;SDS011;14685;50.618;7.024;2022-08-21T01:20:17;7.57;;;4.25;;
27163;SDS011;14685;50.618;7.024;2022-08-21T01:22:44;9.63;;;4.50;;
27163;SDS011;14685;50.618;7.024;2022-08-21T01:25:12;7.05;;;4.65;;
27163;SDS011;14685;50.618;7.024;2022-08-21T01:27:41;8.20;;;4.65;;
27163;SDS011;14685;50.618;7.024;2022-08-21T01:30:10;11.27;;;4.65;;
27163;SDS011;14685;50.618;7.024;2022-08-21T01:32:45;13.57;;;4.60;;
27163;SDS011;14685;50.618;7.024;2022-08-21T01:35:14;12.15;;;4.80;;
27163;SDS011;14685;50.618;7.024;2022-08-21T01:37:42;8.00;;;4.53;;
27163;SDS011;14685;50.618;7.024;2022-08-21T01:40:10;6.93;;;4.30;;
27163;SDS011;14685;50.618;7.024;2022-08-21T01:42:38;9.23;;;4.60;;
27163;SDS011;14685;50.618;7.024;2022-08-21T01:45:06;9.85;;;4.10;;
27163;SDS011;14685;50.618;7.024;2022-08-21T01:47:34;10.25;;;4.53;;
27163;SDS011;14685;50.618;7.024;2022-08-21T01:50:03;6.90;;;4.22;;
27163;SDS011;14685;50.618;7.024;2022-08-21T01:52:31;10.23;;;4.70;;
27163;SDS011;14685;50.618;7.024;2022-08-21T01:54:59;9.02;;;4.47;;
27163;SDS011;14685;50.618;7.024;2022-08-21T01:57:26;9.20;;;4.60;;
27163;SDS011;14685;50.618;7.024;2022-08-21T01:59:53;9.07;;;4.35;;
27163;SDS011;14685;50.618;7.024;2022-08-21T02:02:20;7.03;;;4.22;;
27163;SDS011;14685;50.618;7.024;2022-08-21T02:04:46;10.57;;;4.40;;
27163;SDS011;14685;50.618;7.024;2022-08-21T02:07:13;6.68;;;3.92;;
27163;SDS011;14685;50.618;7.024;2022-08-21T02:09:41;8.80;;;4.80;;
27163;SDS011;14685;50.618;7.024;2022-08-21T02:12:12;9.85;;;4.43;;
27163;SDS011;14685;50.618;7.024;2022-08-21T02:14:39;13.90;;;4.88;;
27163;SDS011;14685;50.618;7.024;2022-08-21T02:17:07;10.05;;;4.25;;
27163;SDS011;14685;50.618;7.024;2022-08-21T02:19:35;6.55;;;4.22;;
27163;SDS011;14685;50.618;7.024;2022-08-21T02:22:06;7.85;;;4.30;;
27163;SDS011;14685;50.618;7.024;2022-08-21T02:24:37;10.05;;;4.60;;
27163;SDS011;14685;50.618;7.024;2022-08-21T02:27:20;9.00;;;4.78;;
27163;SDS011;14685;50.618;7.024;2022-08-21T02:29:54;9.60;;;4.18;;
27163;SDS011;14685;50.618;7.024;2022-08-21T02:32:22;8.23;;;5.07;;
27163;SDS011;14685;50.618;7.024;2022-08-21T02:34:49;8.43;;;4.20;;
27163;SDS011;14685;50.618;7.024;2022-08-21T02:37:16;9.50;;;4.50;;
27163;SDS011;14685;50.618;7.024;2022-08-21T02:39:43;11.13;;;4.70;;
27163;SDS011;14685;50.618;7.024;2022-08-21T02:42:10;9.95;;;4.20;;
27163;SDS011;14685;50.618;7.024;2022-08-21T02:44:37;10.23;;;4.82;;
27163;SDS011;14685;50.618;7.024;2022-08-21T02:47:04;10.43;;;4.60;;
27163;SDS011;14685;50.618;7.024;2022-08-21T02:49:31;9.40;;;4.80;;
27163;SDS011;14685;50.618;7.024;2022-08-21T02:51:58;10.73;;;4.80;;
27163;SDS011;14685;50.618;7.024;2022-08-21T02:54:25;12.65;;;4.90;;
27163;SDS011;14685;50.618;7.024;2022-08-21T02:56:52;11.70;;;4.72;;
27163;SDS011;14685;50.618;7.024;2022-08-21T02:59:19;9.52;;;4.40;;
27163;SDS011;14685;50.618;7.024;2022-08-21T03:01:46;8.52;;;4.80;;
27163;SDS011;14685;50.618;7.024;2022-08-21T03:04:13;9.20;;;4.50;;
27163;SDS011;14685;50.618;7.024;2022-08-21T03:06:40;7.70;;;4.30;;
27163;SDS011;14685;50.618;7.024;2022-08-21T03:09:06;8.43;;;4.70;;
27163;SDS011;14685;50.618;7.024;2022-08-21T03:11:33;8.20;;;4.93;;
27163;SDS011;14685;50.618;7.024;2022-08-21T03:14:01;7.25;;;3.95;;
27163;SDS011;14685;50.618;7.024;2022-08-21T03:16:28;9.25;;;4.15;;
27163;SDS011;14685;50.618;7.024;2022-08-21T03:19:00;11.57;;;4.70;;
27163;SDS011;14685;50.618;7.024;2022-08-21T03:21:27;7.50;;;4.70;;
27163;SDS011;14685;50.618;7.024;2022-08-21T03:23:54;7.80;;;4.30;;
27163;SDS011;14685;50.618;7.024;2022-08-21T03:26:22;9.93;;;4.60;;
27163;SDS011;14685;50.618;7.024;2022-08-21T03:28:50;9.10;;;4.70;;
27163;SDS011;14685;50.618;7.024;2022-08-21T03:31:17;11.15;;;4.88;;
27163;SDS011;14685;50.618;7.024;2022-08-21T03:33:44;9.45;;;4.80;;
27163;SDS011;14685;50.618;7.024;2022-08-21T03:36:11;11.90;;;4.38;;
27163;SDS011;14685;50.618;7.024;2022-08-21T03:38:38;12.43;;;4.80;;
27163;SDS011;14685;50.618;7.024;2022-08-21T03:41:06;7.32;;;4.25;;
27163;SDS011;14685;50.618;7.024;2022-08-21T03:43:34;12.85;;;4.30;;
27163;SDS011;14685;50.618;7.024;2022-08-21T03:46:02;7.38;;;4.40;;
27163;SDS011;14685;50.618;7.024;2022-08-21T03:48:30;10.77;;;4.80;;
27163;SDS011;14685;50.618;7.024;2022-08-21T03:50:57;7.63;;;5.07;;
27163;SDS011;14685;50.618;7.024;2022-08-21T03:53:24;7.30;;;4.47;;
27163;SDS011;14685;50.618;7.024;2022-08-21T03:55:52;8.70;;;5.10;;
27163;SDS011;14685;50.618;7.024;2022-08-21T03:58:21;7.28;;;4.38;;
27163;SDS011;14685;50.618;7.024;2022-08-21T04:00:51;8.90;;;4.68;;
27163;SDS011;14685;50.618;7.024;2022-08-21T04:03:20;8.40;;;4.57;;
27163;SDS011;14685;50.618;7.024;2022-08-21T04:05:47;9.80;;;4.47;;
27163;SDS011;14685;50.618;7.024;2022-08-21T04:08:15;8.95;;;4.50;;
27163;SDS011;14685;50.618;7.024;2022-08-21T04:10:45;7.80;;;4.47;;
27163;SDS011;14685;50.618;7.024;2022-08-21T04:13:15;9.13;;;4.63;;
27163;SDS011;14685;50.618;7.024;2022-08-21T04:15:42;11.48;;;4.88;;
27163;SDS011;14685;50.618;7.024;2022-08-21T04:18:11;11.70;;;5.00;;
27163;SDS011;14685;50.618;7.024;2022-08-21T04:20:39;8.93;;;4.72;;
27163;SDS011;14685;50.618;7.024;2022-08-21T04:23:13;8.10;;;4.18;;
27163;SDS011;14685;50.618;7.024;2022-08-21T04:25:49;9.40;;;4.68;;
27163;SDS011;14685;50.618;7.024;2022-08-21T04:28:17;9.52;;;4.68;;
27163;SDS011;14685;50.618;7.024;2022-08-21T04:30:44;12.35;;;4.78;;
27163;SDS011;14685;50.618;7.024;2022-08-21T04:33:12;9.52;;;4.80;;
27163;SDS011;14685;50.618;7.024;2022-08-21T04:35:39;8.77;;;4.90;;
27163;SDS011;14685;50.618;7.024;2022-08-21T04:38:08;11.57;;;5.47;;
27163;SDS011;14685;50.618;7.024;2022-08-21T04:40:35;13.55;;;4.72;;
27163;SDS011;14685;50.618;7.024;2022-08-21T04:43:03;8.52;;;4.30;;
27163;SDS011;14685;50.618;7.024;2022-08-21T04:45:33;7.18;;;4.72;;
27163;SDS011;14685;50.618;7.024;2022-08-21T04:48:03;11.05;;;5.50;;
27163;SDS011;14685;50.618;7.024;2022-08-21T04:53:47;9.68;;;4.47;;
27163;SDS011;14685;50.618;7.024;2022-08-21T04:56:53;8.20;;;4.53;;
27163;SDS011;14685;50.618;7.024;2022-08-21T04:59:26;9.55;;;4.68;;
27163;SDS011;14685;50.618;7.024;2022-08-21T05:01:56;10.38;;;4.82;;
27163;SDS011;14685;50.618;7.024;2022-08-21T05:04:24;7.07;;;4.25;;
27163;SDS011;14685;50.618;7.024;2022-08-21T05:06:57;9.27;;;4.05;;
27163;SDS011;14685;50.618;7.024;2022-08-21T05:09:26;9.75;;;4.43;;
27163;SDS011;14685;50.618;7.024;2022-08-21T05:11:54;7.55;;;3.95;;
27163;SDS011;14685;50.618;7.024;2022-08-21T05:14:22;6.18;;;4.40;;
27163;SDS011;14685;50.618;7.024;2022-08-21T05:16:49;8.52;;;4.40;;
27163;SDS011;14685;50.618;7.024;2022-08-21T05:19:15;7.93;;;4.65;;
27163;SDS011;14685;50.618;7.024;2022-08-21T05:21:43;10.50;;;5.15;;
27163;SDS011;14685;50.618;7.024;2022-08-21T05:24:13;8.65;;;5.43;;
27163;SDS011;14685;50.618;7.024;2022-08-21T05:26:41;8.23;;;4.72;;
27163;SDS011;14685;50.618;7.024;2022-08-21T05:29:11;8.90;;;4.57;;
27163;SDS011;14685;50.618;7.024;2022-08-21T05:31:44;8.48;;;4.55;;
27163;SDS011;14685;50.618;7.024;2022-08-21T05:34:12;8.43;;;4.75;;
27163;SDS011;14685;50.618;7.024;2022-08-21T05:36:42;12.43;;;5.00;;
27163;SDS011;14685;50.618;7.024;2022-08-21T05:39:09;7.22;;;3.88;;
27163;SDS011;14685;50.618;7.024;2022-08-21T05:41:37;10.52;;;5.05;;
27163;SDS011;14685;50.618;7.024;2022-08-21T05:44:04;13.77;;;4.70;;
27163;SDS011;14685;50.618;7.024;2022-08-21T05:46:35;10.07;;;4.55;;
27163;SDS011;14685;50.618;7.024;2022-08-21T05:49:02;11.73;;;5.03;;
27163;SDS011;14685;50.618;7.024;2022-08-21T05:51:30;12.20;;;4.80;;
27163;SDS011;14685;50.618;7.024;2022-08-21T05:53:58;9.82;;;5.20;;
27163;SDS011;14685;50.618;7.024;2022-08-21T05:56:25;8.80;;;4.60;;
27163;SDS011;14685;50.618;7.024;2022-08-21T05:58:52;8.73;;;4.70;;
27163;SDS011;14685;50.618;7.024;2022-08-21T06:01:19;11.30;;;4.95;;
27163;SDS011;14685;50.618;7.024;2022-08-21T06:03:46;11.13;;;5.03;;
27163;SDS011;14685;50.618;7.024;2022-08-21T06:06:13;12.88;;;5.03;;
27163;SDS011;14685;50.618;7.024;2022-08-21T06:08:40;9.85;;;4.28;;
27163;SDS011;14685;50.618;7.024;2022-08-21T06:11:08;13.43;;;5.20;;
27163;SDS011;14685;50.618;7.024;2022-08-21T06:13:35;10.25;;;5.13;;
27163;SDS011;14685;50.618;7.024;2022-08-21T06:16:09;8.52;;;4.80;;
27163;SDS011;14685;50.618;7.024;2022-08-21T06:18:41;9.63;;;3.92;;
27163;SDS011;14685;50.618;7.024;2022-08-21T06:21:09;10.50;;;5.07;;
27163;SDS011;14685;50.618;7.024;2022-08-21T06:23:37;10.05;;;5.40;;
27163;SDS011;14685;50.618;7.024;2022-08-21T06:26:05;10.27;;;5.18;;
27163;SDS011;14685;50.618;7.024;2022-08-21T06:28:33;10.80;;;4.93;;
27163;SDS011;14685;50.618;7.024;2022-08-21T06:31:01;8.75;;;5.70;;
27163;SDS011;14685;50.618;7.024;2022-08-21T06:33:35;9.25;;;5.80;;
27163;SDS011;14685;50.618;7.024;2022-08-21T06:36:05;10.43;;;5.13;;
27163;SDS011;14685;50.618;7.024;2022-08-21T06:38:33;11.40;;;5.63;;
27163;SDS011;14685;50.618;7.024;2022-08-21T06:41:01;9.63;;;5.55;;
27163;SDS011;14685;50.618;7.024;2022-08-21T06:43:30;6.72;;;4.70;;
27163;SDS011;14685;50.618;7.024;2022-08-21T06:46:05;10.35;;;5.18;;
27163;SDS011;14685;50.618;7.024;2022-08-21T06:48:34;10.80;;;5.15;;
27163;SDS011;14685;50.618;7.024;2022-08-21T06:51:01;8.02;;;5.20;;
27163;SDS011;14685;50.618;7.024;2022-08-21T06:53:31;9.68;;;5.30;;
27163;SDS011;14685;50.618;7.024;2022-08-21T06:56:02;12.68;;;6.53;;
27163;SDS011;14685;50.618;7.024;2022-08-21T06:58:29;9.63;;;5.40;;
27163;SDS011;14685;50.618;7.024;2022-08-21T07:00:57;13.82;;;5.95;;
27163;SDS011;14685;50.618;7.024;2022-08-21T07:03:28;9.35;;;6.10;;
27163;SDS011;14685;50.618;7.024;2022-08-21T07:06:17;12.38;;;6.07;;
27163;SDS011;14685;50.618;7.024;2022-08-21T07:08:44;10.43;;;5.72;;
27163;SDS011;14685;50.618;7.024;2022-08-21T07:11:12;9.50;;;6.05;;
27163;SDS011;14685;50.618;7.024;2022-08-21T07:13:43;12.82;;;6.63;;
27163;SDS011;14685;50.618;7.024;2022-08-21T07:16:11;15.27;;;6.32;;
27163;SDS011;14685;50.618;7.024;2022-08-21T07:18:38;9.98;;;6.03;;
27163;SDS011;14685;50.618;7.024;2022-08-21T07:21:07;10.50;;;5.68;;
27163;SDS011;14685;50.618;7.024;2022-08-21T07:23:36;12.35;;;6.10;;
27163;SDS011;14685;50.618;7.024;2022-08-21T07:26:07;11.18;;;6.30;;
27163;SDS011;14685;50.618;7.024;2022-08-21T07:28:36;13.23;;;6.80;;
27163;SDS011;14685;50.618;7.024;2022-08-21T07:31:04;14.57;;;6.63;;
27163;SDS011;14685;50.618;7.024;2022-08-21T07:33:32;13.55;;;5.10;;
27163;SDS011;14685;50.618;7.024;2022-08-21T07:36:01;10.50;;;4.40;;
27163;SDS011;14685;50.618;7.024;2022-08-21T07:38:28;12.18;;;4.85;;
27163;SDS011;14685;50.618;7.024;2022-08-21T07:40:56;10.48;;;4.88;;
27163;SDS011;14685;50.618;7.024;2022-08-21T07:43:25;10.65;;;4.65;;
27163;SDS011;14685;50.618;7.024;2022-08-21T07:45:53;13.10;;;4.60;;
27163;SDS011;14685;50.618;7.024;2022-08-21T07:48:21;13.20;;;4.63;;
27163;SDS011;14685;50.618;7.024;2022-08-21T07:50:48;9.65;;;3.70;;
27163;SDS011;14685;50.618;7.024;2022-08-21T07:53:16;12.18;;;5.20;;
27163;SDS011;14685;50.618;7.024;2022-08-21T07:55:43;7.45;;;4.03;;
27163;SDS011;14685;50.618;7.024;2022-08-21T07:58:12;10.60;;;4.65;;
27163;SDS011;14685;50.618;7.024;2022-08-21T08:00:40;11.02;;;4.78;;
27163;SDS011;14685;50.618;7.024;2022-08-21T08:03:08;8.90;;;4.78;;
27163;SDS011;14685;50.618;7.024;2022-08-21T08:05:35;11.73;;;5.00;;
27163;SDS011;14685;50.618;7.024;2022-08-21T08:08:04;13.10;;;4.55;;
27163;SDS011;14685;50.618;7.024;2022-08-21T08:10:31;9.05;;;4.10;;
27163;SDS011;14685;50.618;7.024;2022-08-21T08:12:59;10.10;;;4.05;;
27163;SDS011;14685;50.618;7.024;2022-08-21T08:15:27;9.50;;;3.80;;
27163;SDS011;14685;50.618;7.024;2022-08-21T08:17:58;10.27;;;4.10;;
27163;SDS011;14685;50.618;7.024;2022-08-21T08:20:25;9.32;;;4.35;;
27163;SDS011;14685;50.618;7.024;2022-08-21T08:22:53;8.07;;;3.63;;
27163;SDS011;14685;50.618;7.024;2022-08-21T08:25:28;12.77;;;4.75;;
27163;SDS011;14685;50.618;7.024;2022-08-21T08:28:02;7.60;;;3.95;;
27163;SDS011;14685;50.618;7.024;2022-08-21T08:30:43;6.80;;;3.20;;
27163;SDS011;14685;50.618;7.024;2022-08-21T08:33:20;8.65;;;3.33;;
27163;SDS011;14685;50.618;7.024;2022-08-21T08:35:50;11.52;;;4.28;;
27163;SDS011;14685;50.618;7.024;2022-08-21T08:38:19;10.25;;;3.50;;
27163;SDS011;14685;50.618;7.024;2022-08-21T08:43:28;12.95;;;4.00;;
27163;SDS011;14685;50.618;7.024;2022-08-21T08:45:56;8.15;;;3.30;;
